Jovita, Washington
Current Conditions -  °F | °C
As of 5:58 PM on Monday 24 Nov 2014 (Local Time) from KTCM Reporting Station
Light Rain Light Rain  
Wind Chill: 42°   Ceiling: 1200
Heat Index: 46°   Visibility: 8mi
Dew Point: 46°   Wind: 8mph
Humidity: 99%   Direction: 160°SSE
Pressure: 30.15"   Gusts: NA
Location:  47.1905°N, 122.328°W
Report Text: KTCM 250158Z AUTO 16007KT 8SM -RA SCT007 BKN012 OVC042 08/08 A3015 RMK AO2 CIG 012V042 SLP216 P0004 T00790078 $
Loading
Personal Weather Stations






























Interactive Weather Map New forecast layout! Learn more

10-Day Weather Forecast

Advertisements
Track Severe Weather on mobile